Time;durP1;ratioP1;P1;durP2;ratioP2;P2;SDS_P1;SDS_P2;PMS_P1;PMS_P2;Temp;Humidity;BMP_temperature;BMP_pressure;BME280_temperature;BME280_humidity;BME280_pressure;Samples;Min_cycle;Max_cycle;Signal;HPM_P1;HPM_P2
2022/03/06 00:00:34;;;;;;;17.27;12.38;;;2.80;52.80;;;;;;5096208;28;20638;-56
2022/03/06 00:03:02;;;;;;;16.20;13.10;;;2.80;52.60;;;;;;5096046;28;20290;-56
2022/03/06 00:05:31;;;;;;;15.30;12.80;;;2.80;52.60;;;;;;5094808;28;20644;-56
2022/03/06 00:07:59;;;;;;;14.82;11.90;;;2.80;52.30;;;;;;5096264;28;20212;-57
2022/03/06 00:10:26;;;;;;;19.73;12.90;;;2.80;52.20;;;;;;5096115;28;20613;-56
2022/03/06 00:12:53;;;;;;;18.90;13.23;;;2.80;52.80;;;;;;5095954;28;20291;-56
2022/03/06 00:15:21;;;;;;;14.63;12.30;;;2.90;52.50;;;;;;5096104;28;20204;-56
2022/03/06 00:17:48;;;;;;;17.23;12.05;;;2.90;52.50;;;;;;5095945;28;20232;-56
2022/03/06 00:20:15;;;;;;;14.32;12.48;;;2.90;53.10;;;;;;5096069;28;20589;-56
2022/03/06 00:22:44;;;;;;;16.85;12.73;;;2.90;52.50;;;;;;5095087;28;20650;-56
2022/03/06 00:25:11;;;;;;;15.98;12.15;;;3.00;52.50;;;;;;5095867;28;20658;-56
2022/03/06 00:27:38;;;;;;;16.20;12.93;;;2.90;53.10;;;;;;5095771;28;20210;-56
2022/03/06 00:30:07;;;;;;;18.35;12.40;;;2.90;52.60;;;;;;5083939;28;20582;-56
2022/03/06 00:32:34;;;;;;;15.00;12.07;;;3.00;52.30;;;;;;5088366;28;20227;-56
2022/03/06 00:35:01;;;;;;;15.77;12.75;;;3.00;52.20;;;;;;5095661;28;20294;-56
2022/03/06 00:37:28;;;;;;;17.25;12.13;;;3.00;52.50;;;;;;5078905;28;20205;-56
2022/03/06 00:39:56;;;;;;;15.88;11.65;;;3.00;52.20;;;;;;5075503;28;20287;-56
2022/03/06 00:42:23;;;;;;;16.00;12.02;;;3.00;51.90;;;;;;5075191;28;20225;-56
2022/03/06 00:44:50;;;;;;;19.77;12.50;;;3.00;52.10;;;;;;5075070;28;20203;-56
2022/03/06 00:47:17;;;;;;;17.20;13.00;;;3.00;52.00;;;;;;5075269;28;20227;-56
2022/03/06 00:49:44;;;;;;;13.40;11.65;;;3.00;52.00;;;;;;5075145;28;20214;-59
2022/03/06 00:52:12;;;;;;;16.15;12.75;;;2.90;52.60;;;;;;5073852;28;20211;-56
2022/03/06 00:54:39;;;;;;;14.52;11.52;;;2.90;52.50;;;;;;5075074;28;20211;-56
2022/03/06 00:57:07;;;;;;;15.48;12.07;;;2.90;52.30;;;;;;5074959;28;20251;-56
2022/03/06 00:59:35;;;;;;;15.48;12.05;;;2.90;52.30;;;;;;5078484;28;20214;-56
2022/03/06 01:02:03;;;;;;;13.80;11.77;;;2.80;52.80;;;;;;5094875;28;20204;-56
2022/03/06 01:04:30;;;;;;;17.83;12.60;;;2.70;53.30;;;;;;5095047;28;20234;-56
2022/03/06 01:06:57;;;;;;;17.38;12.93;;;2.70;53.10;;;;;;5093679;28;20593;-56
2022/03/06 01:09:24;;;;;;;17.45;12.30;;;2.60;53.50;;;;;;5094886;28;20211;-56
2022/03/06 01:11:51;;;;;;;15.82;11.93;;;2.50;54.00;;;;;;5094889;28;20206;-56
2022/03/06 01:14:19;;;;;;;16.02;12.82;;;2.50;53.90;;;;;;5094716;28;20204;-56
2022/03/06 01:16:46;;;;;;;16.27;11.98;;;2.50;53.80;;;;;;5094705;28;20206;-56
2022/03/06 01:19:14;;;;;;;16.25;12.52;;;2.50;53.70;;;;;;5094896;28;20235;-56
2022/03/06 01:21:42;;;;;;;13.95;11.68;;;2.40;54.30;;;;;;5093345;28;20200;-56
2022/03/06 01:24:09;;;;;;;15.23;12.38;;;2.40;54.40;;;;;;5094491;28;20633;-56
2022/03/06 01:26:36;;;;;;;14.98;12.35;;;2.40;54.00;;;;;;5094482;28;20228;-56
2022/03/06 01:29:03;;;;;;;14.13;12.20;;;2.40;54.40;;;;;;5094606;28;20250;-56
2022/03/06 01:31:32;;;;;;;16.45;12.48;;;2.30;55.10;;;;;;5094359;28;20655;-56
2022/03/06 01:33:59;;;;;;;15.57;12.27;;;2.30;54.90;;;;;;5094612;28;20222;-56
2022/03/06 01:36:26;;;;;;;13.93;11.90;;;2.20;55.40;;;;;;5093215;28;20279;-56
2022/03/06 01:38:53;;;;;;;15.80;12.77;;;2.10;55.90;;;;;;5094563;28;20329;-56
2022/03/06 01:41:19;;;;;;;14.70;12.88;;;2.10;55.90;;;;;;5094356;28;20307;-56
2022/03/06 01:43:46;;;;;;;14.75;12.40;;;2.00;55.70;;;;;;5094199;28;20735;-56
2022/03/06 01:46:14;;;;;;;17.52;12.20;;;2.00;56.60;;;;;;5094209;28;20630;-55
2022/03/06 01:48:42;;;;;;;15.48;12.18;;;2.00;56.80;;;;;;5094233;28;20570;-56
2022/03/06 01:51:09;;;;;;;17.10;12.52;;;1.90;56.90;;;;;;5093094;28;20214;-56
2022/03/06 01:53:36;;;;;;;14.80;11.82;;;1.90;56.20;;;;;;5094038;28;20650;-56
2022/03/06 01:56:03;;;;;;;15.02;12.48;;;1.90;57.00;;;;;;5094088;28;20284;-56
2022/03/06 01:58:30;;;;;;;16.40;12.48;;;1.90;57.10;;;;;;5093900;28;20210;-56
2022/03/06 02:00:57;;;;;;;15.55;12.70;;;1.80;57.30;;;;;;5093890;28;20200;-56
2022/03/06 02:03:24;;;;;;;18.25;13.55;;;1.80;57.10;;;;;;5093893;28;20319;-56
2022/03/06 02:05:52;;;;;;;15.32;12.50;;;1.90;56.70;;;;;;5092539;28;20223;-56
2022/03/06 02:08:19;;;;;;;15.85;12.65;;;1.80;57.40;;;;;;5093750;28;20609;-56
2022/03/06 02:10:47;;;;;;;16.17;12.18;;;1.70;57.90;;;;;;5093985;28;20206;-56
2022/03/06 02:13:14;;;;;;;17.75;12.82;;;1.70;57.10;;;;;;5092928;28;20693;-56
2022/03/06 02:15:42;;;;;;;15.13;12.27;;;1.70;58.20;;;;;;5093741;28;20294;-56
2022/03/06 02:18:08;;;;;;;19.58;13.98;;;1.70;57.80;;;;;;5093670;28;20199;-56
2022/03/06 02:20:37;;;;;;;15.48;13.02;;;1.80;58.20;;;;;;5092360;28;20195;-56
2022/03/06 02:23:05;;;;;;;14.40;12.40;;;1.80;57.70;;;;;;5093479;28;20200;-55
2022/03/06 02:25:34;;;;;;;16.40;13.10;;;1.90;57.60;;;;;;5093696;28;20224;-55
2022/03/06 02:28:03;;;;;;;16.33;13.02;;;1.80;58.50;;;;;;5093423;28;20257;-56
2022/03/06 02:30:33;;;;;;;20.73;12.68;;;1.80;58.80;;;;;;5093419;28;20251;-55
2022/03/06 02:33:02;;;;;;;14.75;11.88;;;1.70;58.30;;;;;;5093520;28;20211;-55
2022/03/06 02:35:29;;;;;;;15.82;12.55;;;1.70;59.00;;;;;;5092037;28;20560;-56
2022/03/06 02:37:56;;;;;;;17.50;12.85;;;1.70;58.70;;;;;;5093392;28;20670;-56
2022/03/06 02:40:25;;;;;;;15.30;12.23;;;1.70;59.00;;;;;;5093336;28;20644;-56
2022/03/06 02:42:53;;;;;;;14.85;11.90;;;1.60;58.90;;;;;;5092753;28;20242;-55
2022/03/06 02:45:22;;;;;;;17.85;13.23;;;1.60;59.10;;;;;;5092571;28;20204;-56
2022/03/06 02:47:49;;;;;;;15.35;11.73;;;1.70;59.10;;;;;;5092695;28;20645;-56
2022/03/06 02:50:19;;;;;;;17.00;13.43;;;1.70;59.00;;;;;;5092692;28;20210;-55
2022/03/06 02:52:47;;;;;;;16.80;13.30;;;1.60;60.20;;;;;;5092054;28;20204;-56
2022/03/06 02:55:17;;;;;;;20.85;14.50;;;1.60;60.00;;;;;;5092716;28;20290;-55
2022/03/06 02:57:45;;;;;;;16.20;12.43;;;1.50;60.20;;;;;;5092581;28;20286;-55
2022/03/06 03:00:15;;;;;;;17.27;13.45;;;1.50;60.10;;;;;;5092553;28;20318;-55
2022/03/06 03:02:43;;;;;;;16.35;13.27;;;1.50;60.70;;;;;;5092340;28;20290;-56
2022/03/06 03:05:11;;;;;;;19.13;13.02;;;1.50;60.60;;;;;;5092652;28;20199;-56
2022/03/06 03:07:39;;;;;;;21.00;13.60;;;1.40;60.20;;;;;;5091187;28;20242;-55
2022/03/06 03:10:07;;;;;;;16.77;13.00;;;1.50;60.40;;;;;;5092430;28;20321;-56
2022/03/06 03:12:34;;;;;;;18.65;14.07;;;1.50;60.60;;;;;;5092348;28;20246;-55
2022/03/06 03:15:03;;;;;;;16.58;12.95;;;1.50;60.60;;;;;;5092267;28;20208;-56
2022/03/06 03:17:30;;;;;;;17.20;13.15;;;1.50;60.60;;;;;;5092400;28;20203;-55
2022/03/06 03:19:57;;;;;;;20.33;13.82;;;1.40;60.80;;;;;;5092477;28;20291;-56
2022/03/06 03:22:24;;;;;;;18.27;13.38;;;1.40;60.80;;;;;;5091212;28;20241;-56
2022/03/06 03:24:51;;;;;;;18.58;13.25;;;1.40;61.10;;;;;;5094422;28;20196;-56
2022/03/06 03:27:17;;;;;;;18.85;13.82;;;1.30;61.70;;;;;;5096432;28;20234;-55
2022/03/06 03:29:44;;;;;;;17.67;14.70;;;1.30;61.80;;;;;;5096191;28;20214;-55
2022/03/06 03:32:12;;;;;;;15.43;12.65;;;1.30;61.60;;;;;;5096520;28;20222;-55
2022/03/06 03:34:39;;;;;;;17.27;13.35;;;1.30;61.80;;;;;;5096432;28;20646;-56
2022/03/06 03:37:06;;;;;;;16.23;13.30;;;1.20;62.00;;;;;;5095117;28;20299;-55
2022/03/06 03:39:33;;;;;;;17.90;14.05;;;1.20;61.10;;;;;;5095968;28;20247;-57
2022/03/06 03:42:00;;;;;;;20.48;14.20;;;1.20;62.10;;;;;;5096346;28;20283;-56
2022/03/06 03:44:27;;;;;;;18.05;13.77;;;1.20;62.50;;;;;;5095883;28;20200;-56
2022/03/06 03:46:54;;;;;;;16.23;13.27;;;1.20;61.70;;;;;;5096143;28;20234;-56
2022/03/06 03:49:22;;;;;;;18.25;12.45;;;1.20;62.60;;;;;;5096075;28;20287;-55
2022/03/06 03:51:49;;;;;;;21.58;14.40;;;1.10;62.60;;;;;;5094735;28;20196;-55
2022/03/06 03:54:16;;;;;;;17.25;13.07;;;1.20;62.30;;;;;;5096119;28;20290;-56
2022/03/06 03:56:43;;;;;;;16.20;13.63;;;1.20;62.30;;;;;;5096003;28;20254;-56
2022/03/06 03:59:10;;;;;;;18.88;14.77;;;1.20;62.10;;;;;;5095631;28;20224;-56
2022/03/06 04:01:37;;;;;;;16.45;13.02;;;1.10;62.80;;;;;;5095875;28;20210;-56
2022/03/06 04:04:04;;;;;;;16.52;13.73;;;1.10;62.10;;;;;;5095655;28;20628;-56
2022/03/06 04:06:33;;;;;;;18.50;13.98;;;1.20;63.00;;;;;;5094428;28;20227;-56
2022/03/06 04:08:59;;;;;;;18.45;13.90;;;1.20;62.60;;;;;;5095720;28;20197;-56
2022/03/06 04:11:26;;;;;;;16.08;12.88;;;1.20;62.60;;;;;;5095554;28;20255;-56
2022/03/06 04:13:53;;;;;;;18.05;13.00;;;1.20;63.00;;;;;;5095501;28;20639;-56
2022/03/06 04:16:20;;;;;;;19.95;13.65;;;1.20;63.20;;;;;;5095613;28;20210;-55
2022/03/06 04:18:47;;;;;;;16.38;14.35;;;1.10;63.40;;;;;;5095612;28;20249;-56
2022/03/06 04:21:14;;;;;;;19.70;14.30;;;1.10;63.20;;;;;;5094148;28;20204;-56
2022/03/06 04:23:42;;;;;;;19.15;14.00;;;1.10;63.90;;;;;;5095314;28;20196;-56
2022/03/06 04:26:09;;;;;;;18.23;13.75;;;1.10;63.80;;;;;;5095052;28;20319;-56
2022/03/06 04:28:36;;;;;;;17.83;14.05;;;1.10;63.50;;;;;;5095324;28;20390;-55
2022/03/06 04:31:03;;;;;;;17.23;13.40;;;1.10;63.50;;;;;;5095471;28;20235;-56
2022/03/06 04:33:29;;;;;;;22.05;14.65;;;1.10;63.90;;;;;;5095212;28;20200;-55
2022/03/06 04:35:56;;;;;;;17.65;13.38;;;1.00;63.50;;;;;;5093174;28;20215;-56
2022/03/06 04:38:23;;;;;;;19.67;15.45;;;1.00;64.40;;;;;;5095201;28;20311;-56
2022/03/06 04:40:51;;;;;;;19.30;13.32;;;0.90;64.60;;;;;;5095076;28;20223;-56
2022/03/06 04:43:18;;;;;;;17.13;13.45;;;0.90;63.80;;;;;;5095073;28;20413;-56
2022/03/06 04:45:45;;;;;;;17.17;13.90;;;0.90;64.50;;;;;;5095105;28;20246;-56
2022/03/06 04:48:12;;;;;;;20.98;14.80;;;0.90;64.00;;;;;;5095008;28;20665;-56
2022/03/06 04:50:39;;;;;;;17.08;13.50;;;0.90;63.90;;;;;;5093596;28;20288;-56
2022/03/06 04:53:06;;;;;;;16.17;13.15;;;0.90;63.70;;;;;;5094886;28;20550;-55
2022/03/06 04:55:33;;;;;;;18.08;14.10;;;0.90;63.50;;;;;;5094937;28;20290;-55
2022/03/06 04:58:01;;;;;;;17.33;13.20;;;0.90;63.80;;;;;;5094697;28;20232;-56
2022/03/06 05:00:28;;;;;;;17.92;14.82;;;0.90;64.00;;;;;;5094815;28;20210;-56
2022/03/06 05:02:55;;;;;;;18.17;13.65;;;0.80;65.10;;;;;;5094583;28;20204;-56
2022/03/06 05:05:21;;;;;;;19.73;13.93;;;0.70;65.00;;;;;;5094065;28;20298;-56
2022/03/06 05:07:48;;;;;;;15.98;12.93;;;0.80;64.40;;;;;;5094056;28;20319;-56
2022/03/06 05:10:15;;;;;;;16.48;13.93;;;0.80;64.90;;;;;;5094733;28;20235;-56
2022/03/06 05:12:43;;;;;;;16.08;13.50;;;0.80;65.00;;;;;;5094507;28;20204;-56
2022/03/06 05:15:14;;;;;;;16.30;13.50;;;0.80;65.40;;;;;;5094539;28;20219;-56
2022/03/06 05:17:41;;;;;;;18.55;13.48;;;0.80;65.10;;;;;;5094355;28;20214;-56
2022/03/06 05:20:10;;;;;;;19.50;14.38;;;0.80;65.30;;;;;;5094283;28;20655;-56
2022/03/06 05:22:37;;;;;;;22.27;15.15;;;0.80;65.30;;;;;;5092897;28;20200;-56
2022/03/06 05:25:05;;;;;;;18.95;14.68;;;0.90;65.40;;;;;;5094208;28;20196;-55
2022/03/06 05:27:32;;;;;;;21.08;14.80;;;0.90;65.30;;;;;;5093988;28;20538;-56
2022/03/06 05:29:59;;;;;;;19.77;15.20;;;0.90;65.70;;;;;;5094097;28;20203;-56
2022/03/06 05:32:27;;;;;;;17.80;13.20;;;0.80;65.60;;;;;;5094121;28;20200;-56
2022/03/06 05:34:54;;;;;;;18.38;14.27;;;0.80;65.80;;;;;;5094057;28;20283;-56
2022/03/06 05:37:21;;;;;;;21.10;14.55;;;0.80;66.20;;;;;;5092771;28;20287;-55
2022/03/06 05:39:48;;;;;;;17.48;14.48;;;0.90;65.60;;;;;;5093623;28;20585;-56
2022/03/06 05:42:16;;;;;;;18.20;13.13;;;0.90;66.10;;;;;;5093856;28;20577;-56
2022/03/06 05:44:43;;;;;;;18.52;13.90;;;0.90;66.10;;;;;;5093593;28;20206;-56
2022/03/06 05:47:10;;;;;;;18.25;14.70;;;1.00;66.20;;;;;;5093703;28;20238;-56
2022/03/06 05:49:38;;;;;;;19.17;14.00;;;0.90;66.90;;;;;;5093596;28;20290;-56
2022/03/06 05:52:06;;;;;;;22.13;14.15;;;1.00;66.50;;;;;;5092466;28;20255;-56
2022/03/06 05:54:33;;;;;;;16.52;13.40;;;1.00;66.30;;;;;;5093764;28;20204;-56
2022/03/06 05:57:00;;;;;;;24.55;14.52;;;1.00;66.50;;;;;;5093430;28;20204;-56
2022/03/06 05:59:27;;;;;;;18.17;13.90;;;1.00;66.80;;;;;;5093415;28;20218;-56
2022/03/06 06:01:54;;;;;;;20.90;14.50;;;1.00;66.90;;;;;;5093527;28;20242;-56
2022/03/06 06:04:21;;;;;;;23.05;15.52;;;1.00;66.20;;;;;;5093226;28;20231;-55
2022/03/06 06:06:49;;;;;;;20.27;14.60;;;1.00;66.80;;;;;;5092142;28;20250;-56
2022/03/06 06:09:16;;;;;;;21.25;15.73;;;1.10;66.40;;;;;;5093330;28;20199;-56
2022/03/06 06:11:43;;;;;;;18.95;14.25;;;1.20;65.90;;;;;;5093209;28;20734;-56
2022/03/06 06:14:10;;;;;;;22.27;15.32;;;1.10;66.60;;;;;;5092983;28;20200;-56
2022/03/06 06:16:37;;;;;;;22.10;16.25;;;1.10;66.80;;;;;;5093077;28;20196;-56
2022/03/06 06:19:04;;;;;;;19.80;15.05;;;1.10;66.80;;;;;;5093261;28;20200;-56
2022/03/06 06:21:31;;;;;;;15.23;13.60;;;1.10;66.70;;;;;;5091857;28;20210;-56
2022/03/06 06:23:59;;;;;;;20.35;14.73;;;1.10;66.70;;;;;;5093240;28;20200;-57
2022/03/06 06:26:26;;;;;;;17.52;13.85;;;1.00;67.40;;;;;;5092871;28;20551;-57
2022/03/06 06:28:56;;;;;;;19.77;15.55;;;1.00;67.70;;;;;;5092897;28;20223;-57
2022/03/06 06:31:23;;;;;;;19.58;14.70;;;1.00;67.30;;;;;;5092944;28;20265;-57
2022/03/06 06:33:50;;;;;;;18.15;13.98;;;1.10;67.30;;;;;;5092958;28;20207;-57
2022/03/06 06:36:17;;;;;;;20.23;14.73;;;1.10;67.20;;;;;;5091670;28;20200;-57
2022/03/06 06:38:44;;;;;;;19.33;14.27;;;1.10;67.10;;;;;;5092804;28;20228;-57
2022/03/06 06:41:13;;;;;;;21.15;15.85;;;1.20;66.30;;;;;;5092920;28;20291;-56
2022/03/06 06:43:42;;;;;;;20.17;14.48;;;1.30;66.40;;;;;;5092714;28;20740;-56
2022/03/06 06:46:09;;;;;;;21.90;15.65;;;1.30;66.80;;;;;;5092832;28;20613;-56
2022/03/06 06:48:36;;;;;;;22.08;15.30;;;1.30;66.20;;;;;;5092754;28;20238;-56
2022/03/06 06:51:02;;;;;;;18.63;13.70;;;1.30;66.40;;;;;;5091396;28;20239;-56
2022/03/06 06:53:29;;;;;;;18.40;13.73;;;1.30;66.60;;;;;;5092734;28;20210;-57
2022/03/06 06:55:56;;;;;;;18.17;13.98;;;1.20;66.80;;;;;;5092635;28;20207;-57
2022/03/06 06:58:24;;;;;;;16.70;14.30;;;1.30;67.20;;;;;;5092238;28;20204;-57
2022/03/06 07:00:51;;;;;;;17.92;14.30;;;1.30;66.80;;;;;;5092315;28;20655;-57
2022/03/06 07:03:18;;;;;;;18.88;14.57;;;1.20;67.40;;;;;;5092390;28;20701;-56
2022/03/06 07:05:47;;;;;;;20.55;14.55;;;1.30;67.30;;;;;;5091352;28;20250;-57
2022/03/06 07:08:14;;;;;;;18.95;14.20;;;1.30;67.10;;;;;;5092411;28;20285;-57
2022/03/06 07:10:41;;;;;;;15.98;14.10;;;1.20;67.10;;;;;;5092431;28;20729;-57
2022/03/06 07:13:07;;;;;;;19.95;14.50;;;1.20;67.30;;;;;;5092355;28;20221;-57
2022/03/06 07:15:36;;;;;;;19.73;15.00;;;1.20;67.50;;;;;;5092260;28;20250;-56
2022/03/06 07:18:03;;;;;;;20.80;15.10;;;1.20;67.30;;;;;;5092396;28;20204;-56
2022/03/06 07:20:31;;;;;;;21.13;15.73;;;1.30;67.50;;;;;;5091090;28;20733;-56
2022/03/06 07:22:58;;;;;;;20.80;14.35;;;1.30;67.40;;;;;;5092298;28;20221;-57
2022/03/06 07:25:24;;;;;;;18.70;14.32;;;1.30;67.40;;;;;;5092204;28;20725;-57
2022/03/06 07:27:52;;;;;;;18.98;14.48;;;1.30;67.40;;;;;;5092238;28;20327;-56
2022/03/06 07:30:18;;;;;;;22.85;15.85;;;1.30;67.70;;;;;;5092165;28;20295;-56
2022/03/06 07:32:48;;;;;;;18.70;14.27;;;1.40;67.50;;;;;;5092237;28;20200;-57
2022/03/06 07:35:16;;;;;;;20.38;14.45;;;1.50;67.30;;;;;;5092271;28;20207;-56
2022/03/06 07:37:43;;;;;;;22.33;15.80;;;1.50;67.20;;;;;;5090825;28;20238;-56
2022/03/06 07:40:13;;;;;;;22.00;14.82;;;1.60;66.70;;;;;;5092096;28;20603;-57
2022/03/06 07:42:39;;;;;;;23.02;14.65;;;1.70;66.40;;;;;;5092308;28;20214;-56
2022/03/06 07:45:07;;;;;;;16.80;14.13;;;1.70;66.50;;;;;;5092126;28;20215;-57
2022/03/06 07:47:34;;;;;;;20.00;14.50;;;1.70;66.80;;;;;;5092078;28;20690;-57
2022/03/06 07:50:02;;;;;;;18.15;14.25;;;1.70;66.90;;;;;;5092037;28;20210;-56
2022/03/06 07:52:29;;;;;;;18.60;14.05;;;1.70;66.70;;;;;;5090795;28;20295;-56
2022/03/06 07:54:57;;;;;;;20.67;14.98;;;1.80;66.60;;;;;;5092087;28;20645;-57
2022/03/06 07:57:24;;;;;;;18.23;14.60;;;1.80;66.50;;;;;;5092198;28;20655;-57
2022/03/06 07:59:50;;;;;;;22.30;14.57;;;1.90;66.70;;;;;;5091883;28;20297;-56
2022/03/06 08:02:17;;;;;;;23.98;16.15;;;1.90;66.40;;;;;;5091967;28;20617;-57
2022/03/06 08:04:44;;;;;;;20.70;15.95;;;1.90;66.10;;;;;;5091916;28;20260;-57
2022/03/06 08:07:12;;;;;;;21.25;15.95;;;1.90;66.10;;;;;;5090537;28;20211;-57
2022/03/06 08:09:39;;;;;;;21.35;15.82;;;1.90;65.90;;;;;;5091976;28;20239;-57
2022/03/06 08:12:07;;;;;;;21.73;16.38;;;2.00;66.10;;;;;;5094299;28;20207;-56
2022/03/06 08:14:34;;;;;;;24.27;17.02;;;2.00;66.20;;;;;;5095558;28;20570;-56
2022/03/06 08:17:01;;;;;;;22.15;15.73;;;1.90;65.90;;;;;;5095552;28;20619;-57
2022/03/06 08:19:28;;;;;;;20.00;15.15;;;2.00;66.20;;;;;;5095452;28;20247;-57
2022/03/06 08:21:55;;;;;;;21.27;15.63;;;1.90;66.60;;;;;;5094038;28;20239;-56
2022/03/06 08:24:23;;;;;;;23.13;16.05;;;2.00;66.30;;;;;;5095569;28;20290;-56
2022/03/06 08:26:50;;;;;;;22.15;16.58;;;2.10;66.50;;;;;;5095278;28;20650;-57
2022/03/06 08:29:17;;;;;;;23.63;17.05;;;2.10;65.70;;;;;;5095220;28;20232;-57
2022/03/06 08:31:43;;;;;;;20.30;15.57;;;2.10;66.30;;;;;;5095457;28;20569;-56
2022/03/06 08:34:10;;;;;;;17.23;13.45;;;2.00;66.20;;;;;;5095234;28;20211;-57
2022/03/06 08:36:37;;;;;;;19.67;15.85;;;2.00;66.50;;;;;;5093833;28;20291;-57
2022/03/06 08:39:05;;;;;;;18.92;15.93;;;1.80;66.70;;;;;;5094976;28;20251;-57
2022/03/06 08:41:33;;;;;;;20.58;15.05;;;1.90;67.10;;;;;;5095223;28;20595;-57
2022/03/06 08:44:00;;;;;;;20.30;15.20;;;2.00;67.10;;;;;;5095016;28;20235;-57
2022/03/06 08:46:27;;;;;;;19.10;15.55;;;2.20;66.60;;;;;;5095029;28;20218;-57
2022/03/06 08:48:54;;;;;;;22.60;15.55;;;2.30;66.00;;;;;;5094576;28;20323;-56
2022/03/06 08:51:20;;;;;;;21.38;15.93;;;2.30;65.80;;;;;;5093492;28;20295;-56
2022/03/06 08:53:47;;;;;;;23.05;14.70;;;2.40;65.20;;;;;;5094997;28;20204;-56
2022/03/06 08:56:14;;;;;;;17.02;15.05;;;2.40;65.90;;;;;;5094879;28;20200;-57
2022/03/06 08:58:42;;;;;;;19.92;14.77;;;2.40;66.10;;;;;;5094672;28;20239;-56
2022/03/06 09:01:09;;;;;;;19.10;15.38;;;2.50;65.40;;;;;;5094706;28;20208;-56
2022/03/06 09:03:36;;;;;;;21.33;14.73;;;2.70;64.00;;;;;;5094490;28;20236;-57
2022/03/06 09:06:03;;;;;;;17.80;13.93;;;2.80;63.90;;;;;;5093297;28;20694;-56
2022/03/06 09:08:30;;;;;;;18.02;14.40;;;3.00;63.00;;;;;;5094605;28;20285;-57
2022/03/06 09:10:57;;;;;;;19.60;15.25;;;3.10;61.50;;;;;;5094632;28;20204;-57
2022/03/06 09:13:24;;;;;;;19.77;14.77;;;3.00;62.40;;;;;;5094611;28;20206;-56
2022/03/06 09:15:52;;;;;;;22.27;14.20;;;3.10;62.10;;;;;;5094312;28;20208;-57
2022/03/06 09:18:19;;;;;;;19.75;13.73;;;3.30;62.40;;;;;;5094554;28;20367;-57
2022/03/06 09:20:46;;;;;;;18.00;14.27;;;3.50;60.90;;;;;;5093283;28;20632;-57
2022/03/06 09:23:12;;;;;;;20.25;14.40;;;3.50;60.70;;;;;;5094260;28;20616;-57
2022/03/06 09:25:39;;;;;;;19.30;14.13;;;3.60;60.70;;;;;;5094405;28;20291;-58
2022/03/06 09:28:07;;;;;;;15.75;13.98;;;3.60;58.50;;;;;;5094191;28;20231;-57
2022/03/06 09:30:34;;;;;;;19.70;13.80;;;3.50;60.20;;;;;;5094027;28;20231;-57
2022/03/06 09:33:02;;;;;;;15.95;13.98;;;3.60;59.60;;;;;;5094383;28;20291;-57
2022/03/06 09:35:29;;;;;;;16.75;15.00;;;3.80;58.70;;;;;;5093086;28;20214;-57
2022/03/06 09:37:55;;;;;;;17.13;13.82;;;3.80;59.30;;;;;;5094211;28;20227;-57
2022/03/06 09:40:22;;;;;;;19.40;15.30;;;4.00;59.30;;;;;;5094043;28;20235;-56
2022/03/06 09:42:50;;;;;;;20.00;14.40;;;4.30;58.60;;;;;;5094066;28;20208;-57
2022/03/06 09:45:17;;;;;;;16.70;14.07;;;4.50;59.10;;;;;;5093712;28;20678;-57
2022/03/06 09:47:45;;;;;;;19.35;15.15;;;4.60;57.60;;;;;;5093957;28;20282;-57
2022/03/06 09:50:14;;;;;;;19.90;15.57;;;4.70;57.50;;;;;;5093812;28;20196;-57
2022/03/06 09:52:42;;;;;;;17.80;12.63;;;4.70;54.70;;;;;;5092613;28;20200;-57
2022/03/06 09:55:09;;;;;;;15.43;13.82;;;4.50;56.90;;;;;;5093956;28;20294;-57
2022/03/06 09:57:37;;;;;;;18.95;14.30;;;4.60;54.80;;;;;;5093901;28;20287;-57
2022/03/06 10:00:05;;;;;;;16.60;13.65;;;4.60;57.30;;;;;;5093372;28;20300;-56
2022/03/06 10:02:32;;;;;;;16.00;14.05;;;4.80;56.00;;;;;;5094001;28;20200;-57
2022/03/06 10:04:59;;;;;;;20.73;14.98;;;5.10;55.70;;;;;;5093769;28;20330;-57
2022/03/06 10:07:27;;;;;;;20.77;13.90;;;5.10;55.00;;;;;;5092491;28;20211;-57
2022/03/06 10:09:56;;;;;;;18.05;13.60;;;5.10;53.80;;;;;;5093506;28;20327;-57
2022/03/06 10:12:27;;;;;;;20.52;14.68;;;5.00;53.30;;;;;;5093303;28;20196;-57
2022/03/06 10:14:55;;;;;;;16.60;13.70;;;5.00;53.60;;;;;;5093395;28;20231;-57
2022/03/06 10:17:23;;;;;;;16.75;13.50;;;4.90;51.80;;;;;;5093414;28;20654;-55
2022/03/06 10:19:56;;;;;;;19.40;14.45;;;5.00;52.50;;;;;;5093345;28;20210;-57
2022/03/06 10:22:25;;;;;;;16.00;13.85;;;5.00;51.90;;;;;;5091854;28;20295;-57
2022/03/06 10:24:55;;;;;;;18.88;14.82;;;4.90;51.80;;;;;;5093153;28;20199;-55
2022/03/06 10:27:44;;;;;;;18.63;14.52;;;4.90;52.50;;;;;;5093192;28;20654;-57
2022/03/06 10:30:29;;;;;;;19.17;14.13;;;5.00;53.10;;;;;;5093108;28;20204;-57
2022/03/06 10:32:58;;;;;;;21.48;14.25;;;5.10;52.50;;;;;;5093198;28;20279;-57
2022/03/06 10:35:35;;;;;;;17.80;14.23;;;5.10;52.20;;;;;;5091490;28;20287;-57
2022/03/06 10:38:18;;;;;;;15.73;14.00;;;5.30;52.60;;;;;;5093142;28;20255;-56
2022/03/06 10:40:47;;;;;;;17.25;14.05;;;5.40;51.70;;;;;;5093010;28;20658;-57
2022/03/06 10:43:20;;;;;;;19.88;14.57;;;5.10;50.90;;;;;;5093152;28;20299;-57
2022/03/06 10:45:48;;;;;;;17.50;13.55;;;5.10;49.00;;;;;;5092622;28;20203;-57
2022/03/06 10:48:15;;;;;;;17.63;13.30;;;5.20;49.90;;;;;;5092761;28;20224;-57
2022/03/06 10:50:43;;;;;;;18.02;13.45;;;5.10;48.90;;;;;;5091521;28;20208;-57
2022/03/06 10:53:23;;;;;;;18.50;14.27;;;5.00;48.90;;;;;;5092856;28;20222;-57
2022/03/06 10:55:53;;;;;;;17.65;14.30;;;5.10;49.90;;;;;;5092872;28;20207;-57
2022/03/06 10:58:21;;;;;;;16.10;13.50;;;5.10;48.10;;;;;;5092617;28;20222;-55
2022/03/06 11:00:49;;;;;;;16.70;13.75;;;5.20;50.10;;;;;;5092562;28;20207;-57
2022/03/06 11:03:16;;;;;;;17.77;14.20;;;5.50;49.50;;;;;;5092803;28;20236;-57
2022/03/06 11:05:45;;;;;;;19.40;14.93;;;5.70;49.80;;;;;;5091377;28;20453;-57
2022/03/06 11:08:14;;;;;;;17.90;14.57;;;6.00;49.70;;;;;;5092630;28;20265;-58
2022/03/06 11:10:42;;;;;;;16.65;14.90;;;6.40;48.70;;;;;;5092546;28;20301;-57
2022/03/06 11:13:12;;;;;;;17.50;14.23;;;6.70;47.00;;;;;;5092632;28;20497;-57
2022/03/06 11:15:39;;;;;;;17.23;14.82;;;7.10;46.80;;;;;;5092552;28;20670;-57
2022/03/06 11:18:06;;;;;;;16.25;14.10;;;7.20;45.70;;;;;;5092460;28;20208;-57
2022/03/06 11:20:34;;;;;;;17.02;14.38;;;7.40;45.50;;;;;;5091238;28;20207;-57
2022/03/06 11:23:08;;;;;;;19.33;14.88;;;7.40;45.20;;;;;;5092238;28;20204;-57
2022/03/06 11:25:40;;;;;;;17.52;14.10;;;7.20;44.50;;;;;;5092298;28;20200;-57
2022/03/06 11:28:26;;;;;;;16.52;14.75;;;7.10;45.70;;;;;;5092358;28;20204;-57
2022/03/06 11:30:53;;;;;;;18.40;14.07;;;7.00;46.30;;;;;;5092309;28;20662;-57
2022/03/06 11:33:20;;;;;;;17.35;13.90;;;7.00;45.70;;;;;;5092533;28;20204;-57
2022/03/06 11:35:47;;;;;;;15.90;14.20;;;7.00;44.40;;;;;;5090965;28;20234;-57
2022/03/06 11:38:17;;;;;;;17.30;14.50;;;7.00;45.30;;;;;;5092249;28;20204;-57
2022/03/06 11:40:49;;;;;;;16.63;14.60;;;7.20;44.60;;;;;;5092273;28;20204;-57
2022/03/06 11:43:35;;;;;;;17.02;14.20;;;7.50;43.70;;;;;;5092310;28;20208;-57
2022/03/06 11:46:09;;;;;;;15.60;13.95;;;7.90;41.30;;;;;;5094468;28;20204;-57
2022/03/06 11:49:04;;;;;;;18.08;15.23;;;8.00;42.00;;;;;;5096227;28;20227;-57
2022/03/06 11:51:33;;;;;;;16.70;14.45;;;8.20;41.90;;;;;;5094874;28;20200;-57
2022/03/06 11:54:02;;;;;;;15.05;13.45;;;7.90;43.00;;;;;;5096126;28;20200;-57
2022/03/06 11:56:51;;;;;;;16.10;13.65;;;7.80;42.80;;;;;;5096103;28;20532;-58
2022/03/06 11:59:26;;;;;;;17.20;13.63;;;8.00;43.10;;;;;;5095938;28;20287;-57
2022/03/06 12:01:55;;;;;;;15.55;13.80;;;9.00;43.10;;;;;;5096135;28;20210;-57
2022/03/06 12:04:25;;;;;;;15.27;13.48;;;9.80;38.10;;;;;;5095988;28;20327;-57
2022/03/06 12:06:54;;;;;;;17.23;12.90;;;10.20;38.50;;;;;;5094687;28;20252;-57
2022/03/06 12:09:23;;;;;;;16.83;14.93;;;11.10;35.70;;;;;;5095880;28;20246;-58
2022/03/06 12:11:52;;;;;;;15.68;14.07;;;11.60;36.70;;;;;;5096105;28;20540;-58
2022/03/06 12:14:21;;;;;;;15.48;13.98;;;12.10;34.90;;;;;;5096034;28;20200;-58
2022/03/06 12:17:33;;;;;;;15.57;13.82;;;12.40;33.90;;;;;;5095958;28;20295;-58
2022/03/06 12:20:28;;;;;;;16.35;14.73;;;12.00;33.70;;;;;;5068102;28;20214;-58
2022/03/06 12:23:03;;;;;;;15.65;14.02;;;12.40;34.10;;;;;;5095781;28;20196;-58
2022/03/06 12:25:33;;;;;;;23.42;15.30;;;12.10;33.70;;;;;;5095596;28;20203;-57
2022/03/06 12:28:24;;;;;;;16.63;14.95;;;11.70;35.10;;;;;;5095463;28;20295;-57
2022/03/06 12:30:52;;;;;;;16.23;14.68;;;10.80;35.10;;;;;;5095632;28;20273;-57
2022/03/06 12:33:39;;;;;;;16.00;14.50;;;10.00;36.90;;;;;;5095746;28;20210;-57
2022/03/06 12:36:24;;;;;;;15.73;14.02;;;9.80;37.70;;;;;;5094269;28;20255;-58
2022/03/06 12:39:06;;;;;;;15.93;14.40;;;9.90;37.70;;;;;;5095620;28;20294;-56
2022/03/06 12:41:34;;;;;;;14.93;13.43;;;9.60;38.20;;;;;;5095567;28;20699;-55